sensor_id;sensor_type;location;lat;lon;timestamp;P1;durP1;ratioP1;P2;durP2;ratioP2
47335;SDS011;33068;51.990;5.926;2024-03-23T00:53:45;41.25;;;13.02;;
47335;SDS011;33068;51.990;5.926;2024-03-23T00:56:12;70.63;;;19.30;;
47335;SDS011;33068;51.990;5.926;2024-03-23T00:58:37;37.42;;;13.02;;
47335;SDS011;33068;51.990;5.926;2024-03-23T01:01:03;53.58;;;16.35;;
47335;SDS011;33068;51.990;5.926;2024-03-23T01:03:29;52.70;;;15.35;;
47335;SDS011;33068;51.990;5.926;2024-03-23T01:05:58;45.05;;;15.48;;
47335;SDS011;33068;51.990;5.926;2024-03-23T01:08:25;57.47;;;17.88;;
47335;SDS011;33068;51.990;5.926;2024-03-23T01:10:57;51.67;;;15.85;;
47335;SDS011;33068;51.990;5.926;2024-03-23T01:13:23;55.40;;;18.38;;
47335;SDS011;33068;51.990;5.926;2024-03-23T01:15:49;64.47;;;18.20;;
47335;SDS011;33068;51.990;5.926;2024-03-23T01:18:15;52.78;;;16.45;;
47335;SDS011;33068;51.990;5.926;2024-03-23T01:20:40;53.50;;;16.58;;
47335;SDS011;33068;51.990;5.926;2024-03-23T01:23:06;56.95;;;18.52;;
47335;SDS011;33068;51.990;5.926;2024-03-23T01:25:31;62.22;;;19.92;;
47335;SDS011;33068;51.990;5.926;2024-03-23T01:27:57;61.95;;;19.75;;
47335;SDS011;33068;51.990;5.926;2024-03-23T01:30:22;55.13;;;18.70;;
47335;SDS011;33068;51.990;5.926;2024-03-23T01:32:48;65.65;;;21.50;;
47335;SDS011;33068;51.990;5.926;2024-03-23T01:35:13;65.30;;;21.63;;
47335;SDS011;33068;51.990;5.926;2024-03-23T01:37:39;61.60;;;19.27;;
47335;SDS011;33068;51.990;5.926;2024-03-23T01:40:05;54.60;;;18.85;;
47335;SDS011;33068;51.990;5.926;2024-03-23T01:42:31;59.75;;;19.38;;
47335;SDS011;33068;51.990;5.926;2024-03-23T01:44:56;57.75;;;19.58;;
47335;SDS011;33068;51.990;5.926;2024-03-23T01:47:22;57.50;;;19.88;;
47335;SDS011;33068;51.990;5.926;2024-03-23T01:49:47;46.70;;;19.70;;
47335;SDS011;33068;51.990;5.926;2024-03-23T01:52:13;66.00;;;21.85;;
47335;SDS011;33068;51.990;5.926;2024-03-23T01:54:39;53.92;;;20.25;;
47335;SDS011;33068;51.990;5.926;2024-03-23T01:57:05;62.15;;;20.45;;
47335;SDS011;33068;51.990;5.926;2024-03-23T01:59:31;60.40;;;19.50;;
47335;SDS011;33068;51.990;5.926;2024-03-23T02:01:57;66.50;;;20.20;;
47335;SDS011;33068;51.990;5.926;2024-03-23T02:04:23;55.58;;;20.42;;
47335;SDS011;33068;51.990;5.926;2024-03-23T02:06:48;57.90;;;20.65;;
47335;SDS011;33068;51.990;5.926;2024-03-23T02:09:14;55.30;;;19.38;;
47335;SDS011;33068;51.990;5.926;2024-03-23T02:11:39;55.03;;;19.73;;
47335;SDS011;33068;51.990;5.926;2024-03-23T02:14:05;78.65;;;20.23;;
47335;SDS011;33068;51.990;5.926;2024-03-23T02:16:30;54.08;;;18.23;;
47335;SDS011;33068;51.990;5.926;2024-03-23T02:18:56;61.13;;;19.88;;
47335;SDS011;33068;51.990;5.926;2024-03-23T02:21:21;53.88;;;19.52;;
47335;SDS011;33068;51.990;5.926;2024-03-23T02:23:47;59.90;;;19.48;;
47335;SDS011;33068;51.990;5.926;2024-03-23T02:26:12;52.63;;;19.10;;
47335;SDS011;33068;51.990;5.926;2024-03-23T02:28:38;63.28;;;20.60;;
47335;SDS011;33068;51.990;5.926;2024-03-23T02:31:03;59.83;;;20.42;;
47335;SDS011;33068;51.990;5.926;2024-03-23T02:33:29;56.72;;;20.10;;
47335;SDS011;33068;51.990;5.926;2024-03-23T02:35:58;55.67;;;19.25;;
47335;SDS011;33068;51.990;5.926;2024-03-23T02:38:23;55.97;;;20.27;;
47335;SDS011;33068;51.990;5.926;2024-03-23T02:40:49;67.10;;;22.20;;
47335;SDS011;33068;51.990;5.926;2024-03-23T02:43:15;60.42;;;20.30;;
47335;SDS011;33068;51.990;5.926;2024-03-23T02:45:40;54.47;;;20.90;;
47335;SDS011;33068;51.990;5.926;2024-03-23T02:48:06;51.50;;;21.50;;
47335;SDS011;33068;51.990;5.926;2024-03-23T02:50:31;62.95;;;21.35;;
47335;SDS011;33068;51.990;5.926;2024-03-23T02:52:57;53.08;;;20.20;;
47335;SDS011;33068;51.990;5.926;2024-03-23T02:55:23;59.72;;;21.55;;
47335;SDS011;33068;51.990;5.926;2024-03-23T02:57:48;55.65;;;21.05;;
47335;SDS011;33068;51.990;5.926;2024-03-23T03:00:14;61.42;;;22.55;;
47335;SDS011;33068;51.990;5.926;2024-03-23T03:02:39;60.90;;;22.35;;
47335;SDS011;33068;51.990;5.926;2024-03-23T03:05:05;51.75;;;19.83;;
47335;SDS011;33068;51.990;5.926;2024-03-23T03:07:31;66.93;;;24.05;;
47335;SDS011;33068;51.990;5.926;2024-03-23T03:09:57;64.35;;;24.23;;
47335;SDS011;33068;51.990;5.926;2024-03-23T03:12:22;63.90;;;24.17;;
47335;SDS011;33068;51.990;5.926;2024-03-23T03:14:48;55.03;;;22.45;;
47335;SDS011;33068;51.990;5.926;2024-03-23T03:17:13;70.88;;;26.23;;
47335;SDS011;33068;51.990;5.926;2024-03-23T03:19:39;66.90;;;24.95;;
47335;SDS011;33068;51.990;5.926;2024-03-23T03:22:05;65.75;;;24.98;;
47335;SDS011;33068;51.990;5.926;2024-03-23T03:24:30;81.95;;;27.38;;
47335;SDS011;33068;51.990;5.926;2024-03-23T03:26:56;68.15;;;25.00;;
47335;SDS011;33068;51.990;5.926;2024-03-23T03:29:21;73.75;;;26.50;;
47335;SDS011;33068;51.990;5.926;2024-03-23T03:31:47;61.58;;;24.75;;
47335;SDS011;33068;51.990;5.926;2024-03-23T03:34:12;68.35;;;24.35;;
47335;SDS011;33068;51.990;5.926;2024-03-23T03:36:38;63.38;;;26.73;;
47335;SDS011;33068;51.990;5.926;2024-03-23T03:39:03;74.05;;;28.50;;
47335;SDS011;33068;51.990;5.926;2024-03-23T03:41:29;85.45;;;31.20;;
47335;SDS011;33068;51.990;5.926;2024-03-23T03:43:56;76.40;;;29.40;;
47335;SDS011;33068;51.990;5.926;2024-03-23T03:46:21;72.72;;;28.58;;
47335;SDS011;33068;51.990;5.926;2024-03-23T03:48:47;49.85;;;21.60;;
47335;SDS011;33068;51.990;5.926;2024-03-23T03:51:12;63.88;;;25.27;;
47335;SDS011;33068;51.990;5.926;2024-03-23T03:53:38;60.35;;;25.13;;
47335;SDS011;33068;51.990;5.926;2024-03-23T03:56:03;64.40;;;25.50;;
47335;SDS011;33068;51.990;5.926;2024-03-23T03:58:29;56.92;;;21.55;;
47335;SDS011;33068;51.990;5.926;2024-03-23T04:00:54;68.05;;;26.45;;
47335;SDS011;33068;51.990;5.926;2024-03-23T04:03:20;56.30;;;23.13;;
47335;SDS011;33068;51.990;5.926;2024-03-23T04:05:52;44.42;;;20.30;;
47335;SDS011;33068;51.990;5.926;2024-03-23T04:08:21;66.65;;;23.48;;
47335;SDS011;33068;51.990;5.926;2024-03-23T04:10:47;59.38;;;20.98;;
47335;SDS011;33068;51.990;5.926;2024-03-23T04:13:13;60.80;;;24.67;;
47335;SDS011;33068;51.990;5.926;2024-03-23T04:15:39;67.75;;;24.25;;
47335;SDS011;33068;51.990;5.926;2024-03-23T04:18:04;48.03;;;21.75;;
47335;SDS011;33068;51.990;5.926;2024-03-23T04:20:30;69.05;;;25.77;;
47335;SDS011;33068;51.990;5.926;2024-03-23T04:22:56;54.40;;;22.30;;
47335;SDS011;33068;51.990;5.926;2024-03-23T04:25:21;54.03;;;22.17;;
47335;SDS011;33068;51.990;5.926;2024-03-23T04:27:47;58.17;;;20.38;;
47335;SDS011;33068;51.990;5.926;2024-03-23T04:30:12;55.40;;;20.85;;
47335;SDS011;33068;51.990;5.926;2024-03-23T04:32:38;57.35;;;21.90;;
47335;SDS011;33068;51.990;5.926;2024-03-23T04:35:03;52.95;;;20.38;;
47335;SDS011;33068;51.990;5.926;2024-03-23T04:37:29;50.70;;;21.05;;
47335;SDS011;33068;51.990;5.926;2024-03-23T04:39:55;49.80;;;19.83;;
47335;SDS011;33068;51.990;5.926;2024-03-23T04:42:20;41.08;;;17.15;;
47335;SDS011;33068;51.990;5.926;2024-03-23T04:44:46;44.58;;;16.80;;
47335;SDS011;33068;51.990;5.926;2024-03-23T04:47:11;45.45;;;16.10;;
47335;SDS011;33068;51.990;5.926;2024-03-23T04:49:37;48.70;;;17.38;;
47335;SDS011;33068;51.990;5.926;2024-03-23T04:52:03;41.92;;;16.52;;
47335;SDS011;33068;51.990;5.926;2024-03-23T04:54:29;42.20;;;17.58;;
47335;SDS011;33068;51.990;5.926;2024-03-23T04:56:55;38.63;;;15.25;;
47335;SDS011;33068;51.990;5.926;2024-03-23T04:59:21;35.15;;;13.90;;
47335;SDS011;33068;51.990;5.926;2024-03-23T05:01:47;38.05;;;15.45;;
47335;SDS011;33068;51.990;5.926;2024-03-23T05:04:12;43.22;;;15.77;;
47335;SDS011;33068;51.990;5.926;2024-03-23T05:06:38;43.65;;;16.15;;
47335;SDS011;33068;51.990;5.926;2024-03-23T05:09:03;42.40;;;16.10;;
47335;SDS011;33068;51.990;5.926;2024-03-23T05:11:29;37.08;;;14.60;;
47335;SDS011;33068;51.990;5.926;2024-03-23T05:13:54;43.65;;;17.13;;
47335;SDS011;33068;51.990;5.926;2024-03-23T05:16:20;49.08;;;16.58;;
47335;SDS011;33068;51.990;5.926;2024-03-23T05:18:45;35.95;;;14.27;;
47335;SDS011;33068;51.990;5.926;2024-03-23T05:21:11;44.10;;;15.63;;
47335;SDS011;33068;51.990;5.926;2024-03-23T05:23:36;38.63;;;14.43;;
47335;SDS011;33068;51.990;5.926;2024-03-23T05:26:02;39.13;;;13.57;;
47335;SDS011;33068;51.990;5.926;2024-03-23T05:28:27;34.20;;;10.43;;
47335;SDS011;33068;51.990;5.926;2024-03-23T05:30:53;32.08;;;11.82;;
47335;SDS011;33068;51.990;5.926;2024-03-23T05:38:11;24.97;;;8.37;;
47335;SDS011;33068;51.990;5.926;2024-03-23T05:40:36;33.13;;;9.63;;
47335;SDS011;33068;51.990;5.926;2024-03-23T05:43:02;33.83;;;9.10;;
47335;SDS011;33068;51.990;5.926;2024-03-23T05:45:28;26.48;;;8.82;;
47335;SDS011;33068;51.990;5.926;2024-03-23T05:47:54;33.45;;;9.55;;
47335;SDS011;33068;51.990;5.926;2024-03-23T05:50:19;22.83;;;7.82;;
47335;SDS011;33068;51.990;5.926;2024-03-23T05:52:45;26.38;;;7.93;;
47335;SDS011;33068;51.990;5.926;2024-03-23T06:00:01;29.23;;;9.05;;
47335;SDS011;33068;51.990;5.926;2024-03-23T06:02:27;30.60;;;7.57;;
47335;SDS011;33068;51.990;5.926;2024-03-23T06:04:53;22.10;;;8.05;;
47335;SDS011;33068;51.990;5.926;2024-03-23T06:07:18;25.60;;;7.47;;
47335;SDS011;33068;51.990;5.926;2024-03-23T06:09:44;26.13;;;7.95;;
47335;SDS011;33068;51.990;5.926;2024-03-23T06:12:09;25.33;;;9.55;;
47335;SDS011;33068;51.990;5.926;2024-03-23T06:14:35;28.50;;;8.63;;
47335;SDS011;33068;51.990;5.926;2024-03-23T06:17:00;25.65;;;7.95;;
47335;SDS011;33068;51.990;5.926;2024-03-23T06:19:27;23.45;;;7.07;;
47335;SDS011;33068;51.990;5.926;2024-03-23T06:21:55;23.02;;;7.00;;
47335;SDS011;33068;51.990;5.926;2024-03-23T06:24:21;24.70;;;7.50;;
47335;SDS011;33068;51.990;5.926;2024-03-23T06:26:47;27.58;;;8.05;;
47335;SDS011;33068;51.990;5.926;2024-03-23T06:29:13;31.00;;;8.05;;
47335;SDS011;33068;51.990;5.926;2024-03-23T06:31:38;28.27;;;7.45;;
47335;SDS011;33068;51.990;5.926;2024-03-23T06:34:04;20.50;;;6.13;;
47335;SDS011;33068;51.990;5.926;2024-03-23T06:36:29;19.58;;;6.25;;
47335;SDS011;33068;51.990;5.926;2024-03-23T06:38:55;24.40;;;6.30;;
47335;SDS011;33068;51.990;5.926;2024-03-23T06:41:20;25.15;;;6.80;;
47335;SDS011;33068;51.990;5.926;2024-03-23T06:43:46;25.10;;;5.95;;
47335;SDS011;33068;51.990;5.926;2024-03-23T06:46:11;25.17;;;5.82;;
47335;SDS011;33068;51.990;5.926;2024-03-23T06:48:37;17.55;;;4.53;;
47335;SDS011;33068;51.990;5.926;2024-03-23T06:51:03;24.10;;;5.47;;
47335;SDS011;33068;51.990;5.926;2024-03-23T06:53:28;21.50;;;5.93;;
47335;SDS011;33068;51.990;5.926;2024-03-23T06:55:54;18.38;;;4.82;;
47335;SDS011;33068;51.990;5.926;2024-03-23T06:58:20;20.52;;;4.38;;
47335;SDS011;33068;51.990;5.926;2024-03-23T07:00:46;22.77;;;3.78;;
47335;SDS011;33068;51.990;5.926;2024-03-23T07:03:12;15.70;;;3.17;;
47335;SDS011;33068;51.990;5.926;2024-03-23T07:05:37;19.98;;;3.67;;
47335;SDS011;33068;51.990;5.926;2024-03-23T07:08:03;16.67;;;2.58;;
47335;SDS011;33068;51.990;5.926;2024-03-23T07:10:29;19.73;;;2.92;;
47335;SDS011;33068;51.990;5.926;2024-03-23T07:12:54;16.60;;;3.40;;
47335;SDS011;33068;51.990;5.926;2024-03-23T07:15:20;19.65;;;3.20;;
47335;SDS011;33068;51.990;5.926;2024-03-23T07:17:49;22.58;;;3.95;;
47335;SDS011;33068;51.990;5.926;2024-03-23T07:20:14;14.68;;;2.28;;
47335;SDS011;33068;51.990;5.926;2024-03-23T07:22:40;11.63;;;2.20;;
47335;SDS011;33068;51.990;5.926;2024-03-23T07:25:06;18.95;;;2.70;;
47335;SDS011;33068;51.990;5.926;2024-03-23T07:27:32;11.88;;;2.65;;
47335;SDS011;33068;51.990;5.926;2024-03-23T07:29:57;12.95;;;3.03;;
47335;SDS011;33068;51.990;5.926;2024-03-23T07:32:23;20.10;;;3.92;;
47335;SDS011;33068;51.990;5.926;2024-03-23T07:34:48;16.80;;;3.40;;
47335;SDS011;33068;51.990;5.926;2024-03-23T07:37:14;8.85;;;3.05;;
47335;SDS011;33068;51.990;5.926;2024-03-23T07:39:39;18.17;;;4.50;;
47335;SDS011;33068;51.990;5.926;2024-03-23T07:42:05;13.02;;;3.95;;
47335;SDS011;33068;51.990;5.926;2024-03-23T07:44:31;11.38;;;3.90;;
47335;SDS011;33068;51.990;5.926;2024-03-23T07:46:56;16.80;;;4.22;;
47335;SDS011;33068;51.990;5.926;2024-03-23T07:49:23;23.95;;;4.53;;
47335;SDS011;33068;51.990;5.926;2024-03-23T07:51:49;12.55;;;3.75;;
47335;SDS011;33068;51.990;5.926;2024-03-23T07:54:14;14.55;;;3.97;;
47335;SDS011;33068;51.990;5.926;2024-03-23T07:56:40;15.90;;;4.10;;
47335;SDS011;33068;51.990;5.926;2024-03-23T07:59:05;16.33;;;3.28;;
47335;SDS011;33068;51.990;5.926;2024-03-23T08:01:31;15.68;;;3.60;;
47335;SDS011;33068;51.990;5.926;2024-03-23T08:03:56;14.07;;;3.30;;
47335;SDS011;33068;51.990;5.926;2024-03-23T08:06:22;14.32;;;3.55;;
47335;SDS011;33068;51.990;5.926;2024-03-23T08:08:49;17.90;;;3.03;;
47335;SDS011;33068;51.990;5.926;2024-03-23T08:11:16;16.63;;;3.30;;
47335;SDS011;33068;51.990;5.926;2024-03-23T08:13:42;17.27;;;3.38;;
47335;SDS011;33068;51.990;5.926;2024-03-23T08:16:10;13.65;;;2.90;;
47335;SDS011;33068;51.990;5.926;2024-03-23T08:18:35;15.90;;;3.47;;
47335;SDS011;33068;51.990;5.926;2024-03-23T08:21:05;15.68;;;3.20;;
47335;SDS011;33068;51.990;5.926;2024-03-23T08:23:31;11.68;;;2.67;;
47335;SDS011;33068;51.990;5.926;2024-03-23T08:25:59;13.10;;;3.55;;
47335;SDS011;33068;51.990;5.926;2024-03-23T08:28:28;18.20;;;3.50;;
47335;SDS011;33068;51.990;5.926;2024-03-23T08:30:55;9.73;;;2.60;;
47335;SDS011;33068;51.990;5.926;2024-03-23T08:33:21;12.35;;;2.08;;
47335;SDS011;33068;51.990;5.926;2024-03-23T08:35:54;17.58;;;2.63;;
47335;SDS011;33068;51.990;5.926;2024-03-23T08:38:20;9.68;;;2.00;;
47335;SDS011;33068;51.990;5.926;2024-03-23T08:40:46;14.60;;;2.10;;
47335;SDS011;33068;51.990;5.926;2024-03-23T08:43:11;9.50;;;1.88;;
47335;SDS011;33068;51.990;5.926;2024-03-23T08:45:37;10.80;;;1.83;;
47335;SDS011;33068;51.990;5.926;2024-03-23T08:48:02;7.82;;;1.75;;
47335;SDS011;33068;51.990;5.926;2024-03-23T08:50:28;9.15;;;1.25;;
47335;SDS011;33068;51.990;5.926;2024-03-23T08:52:54;19.00;;;2.97;;
47335;SDS011;33068;51.990;5.926;2024-03-23T08:55:19;5.78;;;1.13;;
47335;SDS011;33068;51.990;5.926;2024-03-23T08:57:45;12.73;;;1.52;;
47335;SDS011;33068;51.990;5.926;2024-03-23T09:00:10;8.05;;;1.40;;
47335;SDS011;33068;51.990;5.926;2024-03-23T09:02:37;11.60;;;1.60;;
47335;SDS011;33068;51.990;5.926;2024-03-23T09:05:02;11.45;;;1.67;;
47335;SDS011;33068;51.990;5.926;2024-03-23T09:07:28;10.32;;;1.40;;
47335;SDS011;33068;51.990;5.926;2024-03-23T09:09:53;14.10;;;1.35;;
47335;SDS011;33068;51.990;5.926;2024-03-23T09:12:19;11.77;;;1.83;;
47335;SDS011;33068;51.990;5.926;2024-03-23T09:14:44;9.73;;;1.77;;
47335;SDS011;33068;51.990;5.926;2024-03-23T09:17:10;8.30;;;1.90;;
47335;SDS011;33068;51.990;5.926;2024-03-23T09:19:35;6.25;;;1.35;;
47335;SDS011;33068;51.990;5.926;2024-03-23T09:22:01;13.30;;;2.10;;
47335;SDS011;33068;51.990;5.926;2024-03-23T09:24:26;8.00;;;1.67;;
47335;SDS011;33068;51.990;5.926;2024-03-23T09:26:52;13.43;;;1.77;;
47335;SDS011;33068;51.990;5.926;2024-03-23T09:29:18;9.38;;;1.20;;
47335;SDS011;33068;51.990;5.926;2024-03-23T09:31:43;10.90;;;1.50;;
47335;SDS011;33068;51.990;5.926;2024-03-23T09:34:09;12.73;;;1.75;;
47335;SDS011;33068;51.990;5.926;2024-03-23T09:36:34;12.10;;;1.25;;
47335;SDS011;33068;51.990;5.926;2024-03-23T09:39:00;10.32;;;1.33;;
47335;SDS011;33068;51.990;5.926;2024-03-23T09:41:25;10.02;;;0.82;;
47335;SDS011;33068;51.990;5.926;2024-03-23T09:43:54;10.38;;;1.48;;
47335;SDS011;33068;51.990;5.926;2024-03-23T09:46:19;10.18;;;1.30;;
47335;SDS011;33068;51.990;5.926;2024-03-23T09:48:46;5.68;;;0.80;;
47335;SDS011;33068;51.990;5.926;2024-03-23T09:51:12;9.15;;;1.00;;
47335;SDS011;33068;51.990;5.926;2024-03-23T09:53:38;10.02;;;1.30;;
47335;SDS011;33068;51.990;5.926;2024-03-23T09:56:03;7.03;;;1.10;;
47335;SDS011;33068;51.990;5.926;2024-03-23T09:58:29;8.73;;;1.08;;
47335;SDS011;33068;51.990;5.926;2024-03-23T10:00:54;17.20;;;2.38;;
47335;SDS011;33068;51.990;5.926;2024-03-23T10:03:20;8.73;;;1.25;;
47335;SDS011;33068;51.990;5.926;2024-03-23T10:05:46;13.57;;;1.88;;
47335;SDS011;33068;51.990;5.926;2024-03-23T10:10:40;4.28;;;1.10;;
47335;SDS011;33068;51.990;5.926;2024-03-23T10:13:06;9.07;;;1.73;;
47335;SDS011;33068;51.990;5.926;2024-03-23T10:15:33;12.15;;;1.58;;
47335;SDS011;33068;51.990;5.926;2024-03-23T10:20:42;5.32;;;1.17;;
47335;SDS011;33068;51.990;5.926;2024-03-23T10:23:15;7.60;;;0.85;;
47335;SDS011;33068;51.990;5.926;2024-03-23T10:25:41;8.63;;;1.67;;
47335;SDS011;33068;51.990;5.926;2024-03-23T10:28:07;11.07;;;1.83;;
47335;SDS011;33068;51.990;5.926;2024-03-23T10:30:32;7.03;;;1.13;;
47335;SDS011;33068;51.990;5.926;2024-03-23T10:33:10;4.68;;;0.75;;
47335;SDS011;33068;51.990;5.926;2024-03-23T10:35:36;5.85;;;0.98;;
47335;SDS011;33068;51.990;5.926;2024-03-23T10:38:06;14.85;;;0.90;;
47335;SDS011;33068;51.990;5.926;2024-03-23T10:40:35;3.60;;;0.70;;
47335;SDS011;33068;51.990;5.926;2024-03-23T10:43:02;6.78;;;1.08;;
47335;SDS011;33068;51.990;5.926;2024-03-23T10:45:28;6.63;;;0.93;;
47335;SDS011;33068;51.990;5.926;2024-03-23T10:47:54;5.70;;;1.23;;
47335;SDS011;33068;51.990;5.926;2024-03-23T10:50:20;10.30;;;1.20;;
47335;SDS011;33068;51.990;5.926;2024-03-23T10:52:48;7.68;;;1.13;;
47335;SDS011;33068;51.990;5.926;2024-03-23T10:55:15;13.10;;;1.85;;
47335;SDS011;33068;51.990;5.926;2024-03-23T10:57:44;5.30;;;1.10;;
47335;SDS011;33068;51.990;5.926;2024-03-23T11:00:10;12.80;;;1.52;;
47335;SDS011;33068;51.990;5.926;2024-03-23T11:02:36;4.95;;;1.00;;
47335;SDS011;33068;51.990;5.926;2024-03-23T11:05:05;9.25;;;1.23;;
47335;SDS011;33068;51.990;5.926;2024-03-23T11:07:50;8.80;;;1.15;;
47335;SDS011;33068;51.990;5.926;2024-03-23T11:10:27;14.52;;;2.97;;
47335;SDS011;33068;51.990;5.926;2024-03-23T11:12:54;6.13;;;0.77;;
47335;SDS011;33068;51.990;5.926;2024-03-23T11:15:20;9.00;;;1.45;;
47335;SDS011;33068;51.990;5.926;2024-03-23T11:18:01;12.95;;;1.10;;
47335;SDS011;33068;51.990;5.926;2024-03-23T11:20:31;12.15;;;2.55;;
47335;SDS011;33068;51.990;5.926;2024-03-23T11:22:57;15.43;;;1.58;;
47335;SDS011;33068;51.990;5.926;2024-03-23T11:25:24;11.80;;;1.33;;
47335;SDS011;33068;51.990;5.926;2024-03-23T11:28:12;3.92;;;0.70;;
47335;SDS011;33068;51.990;5.926;2024-03-23T11:30:37;9.52;;;1.52;;
47335;SDS011;33068;51.990;5.926;2024-03-23T11:33:02;7.60;;;1.05;;
47335;SDS011;33068;51.990;5.926;2024-03-23T11:35:37;6.82;;;0.80;;
47335;SDS011;33068;51.990;5.926;2024-03-23T11:40:33;4.85;;;0.77;;
47335;SDS011;33068;51.990;5.926;2024-03-23T11:43:01;6.15;;;0.55;;
47335;SDS011;33068;51.990;5.926;2024-03-23T11:45:28;4.28;;;0.50;;
47335;SDS011;33068;51.990;5.926;2024-03-23T11:48:05;7.38;;;0.70;;
47335;SDS011;33068;51.990;5.926;2024-03-23T11:50:31;6.28;;;0.50;;
47335;SDS011;33068;51.990;5.926;2024-03-23T11:56:06;9.27;;;0.80;;
47335;SDS011;33068;51.990;5.926;2024-03-23T11:58:25;5.40;;;1.42;;
47335;SDS011;33068;51.990;5.926;2024-03-23T12:00:56;6.32;;;1.20;;
47335;SDS011;33068;51.990;5.926;2024-03-23T12:03:22;5.05;;;0.68;;
47335;SDS011;33068;51.990;5.926;2024-03-23T12:05:49;7.60;;;1.17;;
47335;SDS011;33068;51.990;5.926;2024-03-23T12:08:25;7.50;;;1.13;;
47335;SDS011;33068;51.990;5.926;2024-03-23T12:11:07;9.40;;;1.10;;
47335;SDS011;33068;51.990;5.926;2024-03-23T12:13:34;9.27;;;0.68;;
47335;SDS011;33068;51.990;5.926;2024-03-23T12:16:10;8.25;;;1.00;;
47335;SDS011;33068;51.990;5.926;2024-03-23T12:18:36;4.50;;;0.60;;
47335;SDS011;33068;51.990;5.926;2024-03-23T12:21:03;6.20;;;0.70;;
47335;SDS011;33068;51.990;5.926;2024-03-23T12:23:29;6.90;;;1.23;;
47335;SDS011;33068;51.990;5.926;2024-03-23T12:25:54;9.60;;;1.52;;
47335;SDS011;33068;51.990;5.926;2024-03-23T12:28:20;7.10;;;0.75;;
47335;SDS011;33068;51.990;5.926;2024-03-23T12:30:45;11.93;;;1.35;;
47335;SDS011;33068;51.990;5.926;2024-03-23T12:33:11;6.68;;;0.90;;
47335;SDS011;33068;51.990;5.926;2024-03-23T12:35:37;8.05;;;0.88;;
47335;SDS011;33068;51.990;5.926;2024-03-23T12:38:02;11.82;;;1.90;;
47335;SDS011;33068;51.990;5.926;2024-03-23T12:40:28;7.68;;;1.40;;
47335;SDS011;33068;51.990;5.926;2024-03-23T12:42:54;7.80;;;1.05;;
47335;SDS011;33068;51.990;5.926;2024-03-23T12:45:20;9.68;;;1.10;;
47335;SDS011;33068;51.990;5.926;2024-03-23T12:47:45;10.40;;;0.93;;
47335;SDS011;33068;51.990;5.926;2024-03-23T12:50:11;8.85;;;1.10;;
47335;SDS011;33068;51.990;5.926;2024-03-23T12:52:37;8.32;;;0.70;;
47335;SDS011;33068;51.990;5.926;2024-03-23T12:55:03;13.40;;;1.20;;
47335;SDS011;33068;51.990;5.926;2024-03-23T12:57:29;5.18;;;1.02;;
47335;SDS011;33068;51.990;5.926;2024-03-23T12:59:55;5.00;;;0.85;;
47335;SDS011;33068;51.990;5.926;2024-03-23T13:02:20;6.68;;;0.88;;
47335;SDS011;33068;51.990;5.926;2024-03-23T13:04:49;9.45;;;1.45;;
47335;SDS011;33068;51.990;5.926;2024-03-23T13:07:16;10.88;;;1.20;;
47335;SDS011;33068;51.990;5.926;2024-03-23T13:09:42;7.45;;;0.90;;
47335;SDS011;33068;51.990;5.926;2024-03-23T13:12:07;8.30;;;1.33;;
47335;SDS011;33068;51.990;5.926;2024-03-23T13:14:33;4.55;;;0.50;;
47335;SDS011;33068;51.990;5.926;2024-03-23T13:16:59;7.50;;;0.98;;
47335;SDS011;33068;51.990;5.926;2024-03-23T13:19:25;9.38;;;0.77;;
47335;SDS011;33068;51.990;5.926;2024-03-23T13:21:50;6.05;;;1.15;;
47335;SDS011;33068;51.990;5.926;2024-03-23T13:24:16;8.00;;;0.70;;
47335;SDS011;33068;51.990;5.926;2024-03-23T13:26:41;11.10;;;0.90;;
47335;SDS011;33068;51.990;5.926;2024-03-23T13:29:07;12.35;;;1.50;;
47335;SDS011;33068;51.990;5.926;2024-03-23T13:31:32;6.30;;;0.85;;
47335;SDS011;33068;51.990;5.926;2024-03-23T13:33:58;7.57;;;1.05;;
47335;SDS011;33068;51.990;5.926;2024-03-23T13:36:23;4.80;;;0.80;;
47335;SDS011;33068;51.990;5.926;2024-03-23T13:38:49;8.73;;;1.48;;
47335;SDS011;33068;51.990;5.926;2024-03-23T13:41:14;8.10;;;1.15;;
47335;SDS011;33068;51.990;5.926;2024-03-23T13:43:40;9.40;;;1.90;;
47335;SDS011;33068;51.990;5.926;2024-03-23T13:46:05;12.63;;;2.13;;
47335;SDS011;33068;51.990;5.926;2024-03-23T13:48:31;8.15;;;1.08;;
47335;SDS011;33068;51.990;5.926;2024-03-23T13:50:57;11.48;;;1.77;;
47335;SDS011;33068;51.990;5.926;2024-03-23T13:53:23;12.00;;;2.42;;
47335;SDS011;33068;51.990;5.926;2024-03-23T13:55:49;5.82;;;0.90;;
47335;SDS011;33068;51.990;5.926;2024-03-23T13:58:15;5.97;;;1.13;;
47335;SDS011;33068;51.990;5.926;2024-03-23T14:00:41;8.95;;;1.65;;
47335;SDS011;33068;51.990;5.926;2024-03-23T14:03:07;10.70;;;1.42;;
47335;SDS011;33068;51.990;5.926;2024-03-23T14:05:32;6.03;;;1.65;;
47335;SDS011;33068;51.990;5.926;2024-03-23T14:07:58;12.20;;;2.72;;
47335;SDS011;33068;51.990;5.926;2024-03-23T14:10:23;6.10;;;1.23;;
47335;SDS011;33068;51.990;5.926;2024-03-23T14:12:49;5.93;;;1.30;;
47335;SDS011;33068;51.990;5.926;2024-03-23T14:15:14;5.78;;;0.68;;
47335;SDS011;33068;51.990;5.926;2024-03-23T14:17:40;3.30;;;0.77;;
47335;SDS011;33068;51.990;5.926;2024-03-23T14:20:05;7.85;;;0.52;;
47335;SDS011;33068;51.990;5.926;2024-03-23T14:22:31;7.05;;;0.95;;
47335;SDS011;33068;51.990;5.926;2024-03-23T14:24:57;9.05;;;1.05;;
47335;SDS011;33068;51.990;5.926;2024-03-23T14:27:23;8.23;;;1.35;;
47335;SDS011;33068;51.990;5.926;2024-03-23T14:29:48;17.88;;;6.65;;
47335;SDS011;33068;51.990;5.926;2024-03-23T14:32:14;12.77;;;4.85;;
47335;SDS011;33068;51.990;5.926;2024-03-23T14:34:39;4.65;;;1.08;;
47335;SDS011;33068;51.990;5.926;2024-03-23T14:37:05;8.07;;;1.00;;
47335;SDS011;33068;51.990;5.926;2024-03-23T14:39:30;7.80;;;0.90;;
47335;SDS011;33068;51.990;5.926;2024-03-23T14:41:56;8.48;;;0.75;;
47335;SDS011;33068;51.990;5.926;2024-03-23T14:44:22;4.90;;;1.08;;
47335;SDS011;33068;51.990;5.926;2024-03-23T14:46:47;5.60;;;0.60;;
47335;SDS011;33068;51.990;5.926;2024-03-23T14:49:14;6.38;;;1.45;;
47335;SDS011;33068;51.990;5.926;2024-03-23T14:51:40;9.82;;;4.13;;
47335;SDS011;33068;51.990;5.926;2024-03-23T14:54:05;7.80;;;3.10;;
47335;SDS011;33068;51.990;5.926;2024-03-23T14:56:31;2.90;;;1.00;;
47335;SDS011;33068;51.990;5.926;2024-03-23T14:58:57;8.95;;;1.20;;
47335;SDS011;33068;51.990;5.926;2024-03-23T15:01:22;5.32;;;0.90;;
47335;SDS011;33068;51.990;5.926;2024-03-23T15:03:48;9.57;;;0.90;;
47335;SDS011;33068;51.990;5.926;2024-03-23T15:06:13;8.20;;;0.77;;
47335;SDS011;33068;51.990;5.926;2024-03-23T15:08:39;8.07;;;1.08;;
47335;SDS011;33068;51.990;5.926;2024-03-23T15:11:04;7.88;;;1.15;;
47335;SDS011;33068;51.990;5.926;2024-03-23T15:13:37;8.98;;;1.30;;
47335;SDS011;33068;51.990;5.926;2024-03-23T15:16:03;14.38;;;5.38;;
47335;SDS011;33068;51.990;5.926;2024-03-23T15:18:30;10.10;;;2.00;;
47335;SDS011;33068;51.990;5.926;2024-03-23T15:20:56;10.82;;;2.28;;
47335;SDS011;33068;51.990;5.926;2024-03-23T15:23:25;10.45;;;2.03;;
47335;SDS011;33068;51.990;5.926;2024-03-23T15:25:54;5.70;;;1.17;;
47335;SDS011;33068;51.990;5.926;2024-03-23T15:28:23;6.57;;;1.08;;
47335;SDS011;33068;51.990;5.926;2024-03-23T15:30:49;7.80;;;1.30;;
47335;SDS011;33068;51.990;5.926;2024-03-23T15:33:14;4.82;;;1.20;;
47335;SDS011;33068;51.990;5.926;2024-03-23T15:35:40;5.47;;;0.98;;
47335;SDS011;33068;51.990;5.926;2024-03-23T15:38:06;4.95;;;1.08;;
47335;SDS011;33068;51.990;5.926;2024-03-23T15:40:31;6.85;;;0.90;;
47335;SDS011;33068;51.990;5.926;2024-03-23T15:42:57;14.07;;;1.38;;